Aeroporto :
LOGIN :

Iscrizione | Disclaimer

   EN    FR    IT 

 










Sommario :    VFR   VFR Marginale   IFR   IFR Intensivo   IFR Molto Intensivo
Visibilità : 
Base nubi : 
>= 8 km
>= 3000ft
5 / 8 km
1000 / 3000 ft
1500m / 5 km
500 / 1000 ft
800 / 1500m
200 / 500 ft
< 800m
< 200 ft
Simboli :   Temporali  Nebbia  Neve Forte  Precipitazioni Forti  Vento > 20 kt
SIGMETs :   Varie  Temporali  Ghiacco  Turbolenza  Onda orograficha  Ceneri Vulcaniche







- Altitudine del aeroporto : 14 ft
- Codice IATA : BRE


EDDW - Bremen Neuenland

ULTIMO METAR :
  • 240620Z 29008KT 9999 -RA FEW015 BKN028 12/10 Q1021 NOSIG

METARs OBSOLETI :
  • 240550Z 29007KT 9999 FEW017 BKN030 12/10 Q1021 NOSIG
  • 240520Z 29007KT 9999 FEW017 BKN029 12/10 Q1021 NOSIG
  • 240450Z 28008KT 9999 FEW017 BKN036 BKN068 12/10 Q1021 NOSIG
  • 240420Z 28008KT 9999 -RA FEW018 BKN033 12/10 Q1021 NOSIG
  • 240350Z 28007KT 9999 -RA SCT019 BKN030 11/10 Q1021 NOSIG

TAF TAF EDDW
Valido dal 24 a 06 ore il 25 a 06 ore UTC


240500Z 2406/2506 29009KT 9999 BKN025
PROB40
TEMPO 2406/2412 BKN012
BECMG 2422/2501 BKN012
TEMPO 2502/2506 4000 -RADZ BKN008
Nessun NOTAM noto per questo aeroporto.



MetMap, La meteo Aeronautica in un colpo d'occhio ! - Copyright ORBIFLY Dicembre 2007 - Disclaimer

ORBIFLY MET'MAP TEAM :

Programmazione e sviluppo : Alexandra Zaïnal
Concezione e sviluppo : Baudouin d'Aumeries
Co-Programmazione e sviluppo : Marc-Olivier Méhu
Supporto tecnico e logistico : Manuel Goepfert
Aiuto per la traduzione : Arnaldo La Scala

Contatto : metmap@orbifly.com




FONTI E CREDITI :

   NOAA